sensor_id;sensor_type;location;lat;lon;timestamp;temperature;humidity
82877;DHT22;72655;47.596;7.658;2023-11-19T06:22:09;9.10;99.90
82877;DHT22;72655;47.596;7.658;2023-11-19T06:24:35;9.10;99.90
82877;DHT22;72655;47.596;7.658;2023-11-19T06:27:03;9.10;99.90
82877;DHT22;72655;47.596;7.658;2023-11-19T06:29:30;9.10;99.90
82877;DHT22;72655;47.596;7.658;2023-11-19T06:31:57;9.10;99.90
82877;DHT22;72655;47.596;7.658;2023-11-19T06:34:25;9.10;99.90
82877;DHT22;72655;47.596;7.658;2023-11-19T06:36:51;9.10;99.90
82877;DHT22;72655;47.596;7.658;2023-11-19T06:39:20;9.10;99.90
82877;DHT22;72655;47.596;7.658;2023-11-19T06:41:47;9.10;99.90
82877;DHT22;72655;47.596;7.658;2023-11-19T06:44:14;9.10;99.90
82877;DHT22;72655;47.596;7.658;2023-11-19T06:46:41;9.10;99.90
82877;DHT22;72655;47.596;7.658;2023-11-19T06:49:08;9.10;99.90
82877;DHT22;72655;47.596;7.658;2023-11-19T06:51:35;9.20;99.90
82877;DHT22;72655;47.596;7.658;2023-11-19T06:54:02;9.20;99.90
82877;DHT22;72655;47.596;7.658;2023-11-19T06:56:31;9.20;99.90
82877;DHT22;72655;47.596;7.658;2023-11-19T06:58:58;9.20;99.90
82877;DHT22;72655;47.596;7.658;2023-11-19T07:01:25;9.20;99.90
82877;DHT22;72655;47.596;7.658;2023-11-19T07:03:52;9.20;99.90
82877;DHT22;72655;47.596;7.658;2023-11-19T07:06:18;9.20;99.90
82877;DHT22;72655;47.596;7.658;2023-11-19T07:08:45;9.20;99.90
82877;DHT22;72655;47.596;7.658;2023-11-19T07:11:13;9.10;99.90
82877;DHT22;72655;47.596;7.658;2023-11-19T07:13:43;9.20;99.90
82877;DHT22;72655;47.596;7.658;2023-11-19T07:16:13;9.20;99.90
82877;DHT22;72655;47.596;7.658;2023-11-19T07:18:40;9.10;99.90
82877;DHT22;72655;47.596;7.658;2023-11-19T07:21:09;9.20;99.90
82877;DHT22;72655;47.596;7.658;2023-11-19T07:23:37;9.20;99.90
82877;DHT22;72655;47.596;7.658;2023-11-19T07:26:05;9.20;99.90
82877;DHT22;72655;47.596;7.658;2023-11-19T07:28:34;9.20;99.90
82877;DHT22;72655;47.596;7.658;2023-11-19T07:31:03;9.20;99.90
82877;DHT22;72655;47.596;7.658;2023-11-19T07:33:30;9.20;99.90
82877;DHT22;72655;47.596;7.658;2023-11-19T07:35:57;9.30;99.90
82877;DHT22;72655;47.596;7.658;2023-11-19T07:38:24;9.30;99.90
82877;DHT22;72655;47.596;7.658;2023-11-19T07:40:51;9.30;99.90
82877;DHT22;72655;47.596;7.658;2023-11-19T07:43:18;9.40;99.90
82877;DHT22;72655;47.596;7.658;2023-11-19T07:45:45;9.40;99.90
82877;DHT22;72655;47.596;7.658;2023-11-19T07:48:13;9.40;99.90
82877;DHT22;72655;47.596;7.658;2023-11-19T07:50:41;9.40;99.90
82877;DHT22;72655;47.596;7.658;2023-11-19T07:53:08;9.50;99.90
82877;DHT22;72655;47.596;7.658;2023-11-19T07:55:35;9.60;99.90
82877;DHT22;72655;47.596;7.658;2023-11-19T07:58:02;9.60;99.90
82877;DHT22;72655;47.596;7.658;2023-11-19T08:00:29;9.70;99.90
82877;DHT22;72655;47.596;7.658;2023-11-19T08:02:56;9.80;99.90
82877;DHT22;72655;47.596;7.658;2023-11-19T08:05:24;9.90;99.90
82877;DHT22;72655;47.596;7.658;2023-11-19T08:07:51;10.10;99.90
82877;DHT22;72655;47.596;7.658;2023-11-19T08:10:18;10.30;99.90
82877;DHT22;72655;47.596;7.658;2023-11-19T08:12:45;10.50;99.90
82877;DHT22;72655;47.596;7.658;2023-11-19T08:15:12;10.70;99.90
82877;DHT22;72655;47.596;7.658;2023-11-19T08:17:39;10.90;99.90
82877;DHT22;72655;47.596;7.658;2023-11-19T08:20:07;11.00;99.90
82877;DHT22;72655;47.596;7.658;2023-11-19T08:22:37;11.10;99.90
82877;DHT22;72655;47.596;7.658;2023-11-19T08:25:05;11.30;99.90
82877;DHT22;72655;47.596;7.658;2023-11-19T08:27:32;11.40;99.90
82877;DHT22;72655;47.596;7.658;2023-11-19T08:30:00;11.60;99.90
82877;DHT22;72655;47.596;7.658;2023-11-19T08:32:27;11.70;99.90
82877;DHT22;72655;47.596;7.658;2023-11-19T08:34:54;11.80;99.90
82877;DHT22;72655;47.596;7.658;2023-11-19T08:37:21;11.90;99.90
82877;DHT22;72655;47.596;7.658;2023-11-19T08:39:50;12.00;99.90
82877;DHT22;72655;47.596;7.658;2023-11-19T08:42:17;12.00;99.90
82877;DHT22;72655;47.596;7.658;2023-11-19T08:44:44;12.10;99.90
82877;DHT22;72655;47.596;7.658;2023-11-19T08:47:16;12.10;99.90
82877;DHT22;72655;47.596;7.658;2023-11-19T08:49:43;12.20;99.90
82877;DHT22;72655;47.596;7.658;2023-11-19T08:52:10;12.30;99.90
82877;DHT22;72655;47.596;7.658;2023-11-19T08:54:43;12.30;99.90
82877;DHT22;72655;47.596;7.658;2023-11-19T08:57:11;12.30;99.90
82877;DHT22;72655;47.596;7.658;2023-11-19T08:59:38;12.40;99.90
82877;DHT22;72655;47.596;7.658;2023-11-19T09:02:05;12.50;99.90
82877;DHT22;72655;47.596;7.658;2023-11-19T09:04:33;12.50;99.90
82877;DHT22;72655;47.596;7.658;2023-11-19T09:07:01;12.50;99.90
82877;DHT22;72655;47.596;7.658;2023-11-19T09:09:28;12.50;99.90
82877;DHT22;72655;47.596;7.658;2023-11-19T09:11:57;12.50;99.90
82877;DHT22;72655;47.596;7.658;2023-11-19T09:14:25;12.50;99.90
82877;DHT22;72655;47.596;7.658;2023-11-19T09:16:52;12.60;99.90
82877;DHT22;72655;47.596;7.658;2023-11-19T09:19:19;12.60;99.90
82877;DHT22;72655;47.596;7.658;2023-11-19T09:21:46;12.60;99.90
82877;DHT22;72655;47.596;7.658;2023-11-19T09:24:13;12.60;99.90
82877;DHT22;72655;47.596;7.658;2023-11-19T09:26:40;12.60;99.90
82877;DHT22;72655;47.596;7.658;2023-11-19T09:29:07;12.60;99.90
82877;DHT22;72655;47.596;7.658;2023-11-19T09:31:37;12.60;99.90
82877;DHT22;72655;47.596;7.658;2023-11-19T09:34:05;12.60;99.90
82877;DHT22;72655;47.596;7.658;2023-11-19T09:36:32;12.60;99.90
82877;DHT22;72655;47.596;7.658;2023-11-19T09:38:59;12.60;99.90
82877;DHT22;72655;47.596;7.658;2023-11-19T09:41:27;12.70;99.90
82877;DHT22;72655;47.596;7.658;2023-11-19T09:43:54;12.70;99.90
82877;DHT22;72655;47.596;7.658;2023-11-19T09:46:22;12.70;99.90
82877;DHT22;72655;47.596;7.658;2023-11-19T09:48:53;12.70;99.90
82877;DHT22;72655;47.596;7.658;2023-11-19T09:51:20;12.70;99.90
82877;DHT22;72655;47.596;7.658;2023-11-19T09:53:48;12.70;99.90
82877;DHT22;72655;47.596;7.658;2023-11-19T09:56:16;12.70;99.90
82877;DHT22;72655;47.596;7.658;2023-11-19T09:58:43;12.70;99.90
82877;DHT22;72655;47.596;7.658;2023-11-19T10:01:10;12.60;99.90
82877;DHT22;72655;47.596;7.658;2023-11-19T10:03:39;12.60;99.90
82877;DHT22;72655;47.596;7.658;2023-11-19T10:06:08;12.60;99.90
82877;DHT22;72655;47.596;7.658;2023-11-19T10:08:37;12.50;99.90
82877;DHT22;72655;47.596;7.658;2023-11-19T10:11:05;12.50;99.90
82877;DHT22;72655;47.596;7.658;2023-11-19T10:13:34;12.50;99.90
82877;DHT22;72655;47.596;7.658;2023-11-19T10:16:04;12.50;99.90
82877;DHT22;72655;47.596;7.658;2023-11-19T10:18:33;12.50;99.90
82877;DHT22;72655;47.596;7.658;2023-11-19T10:21:04;12.50;99.90
82877;DHT22;72655;47.596;7.658;2023-11-19T10:23:48;12.50;99.90
82877;DHT22;72655;47.596;7.658;2023-11-19T10:26:15;12.50;99.90
82877;DHT22;72655;47.596;7.658;2023-11-19T10:28:42;12.50;99.90
82877;DHT22;72655;47.596;7.658;2023-11-19T10:31:11;12.50;99.90
82877;DHT22;72655;47.596;7.658;2023-11-19T10:33:38;12.50;99.90
82877;DHT22;72655;47.596;7.658;2023-11-19T10:36:06;12.50;99.90
82877;DHT22;72655;47.596;7.658;2023-11-19T10:38:35;12.60;99.90
82877;DHT22;72655;47.596;7.658;2023-11-19T10:41:02;12.50;99.90
82877;DHT22;72655;47.596;7.658;2023-11-19T10:43:30;12.60;99.90
82877;DHT22;72655;47.596;7.658;2023-11-19T10:46:09;12.50;99.90
82877;DHT22;72655;47.596;7.658;2023-11-19T10:48:37;12.60;99.90
82877;DHT22;72655;47.596;7.658;2023-11-19T10:51:07;12.60;99.90
82877;DHT22;72655;47.596;7.658;2023-11-19T10:53:37;12.50;99.90
82877;DHT22;72655;47.596;7.658;2023-11-19T10:56:09;12.50;99.90
82877;DHT22;72655;47.596;7.658;2023-11-19T10:58:37;12.50;99.90
82877;DHT22;72655;47.596;7.658;2023-11-19T11:01:11;12.50;99.90
82877;DHT22;72655;47.596;7.658;2023-11-19T11:03:40;12.50;99.90
82877;DHT22;72655;47.596;7.658;2023-11-19T11:06:08;12.50;99.90
82877;DHT22;72655;47.596;7.658;2023-11-19T11:08:38;12.40;99.90
82877;DHT22;72655;47.596;7.658;2023-11-19T11:11:07;12.50;99.90
82877;DHT22;72655;47.596;7.658;2023-11-19T11:13:37;12.40;99.90
82877;DHT22;72655;47.596;7.658;2023-11-19T11:16:08;12.40;99.90
82877;DHT22;72655;47.596;7.658;2023-11-19T11:18:36;12.40;99.90
82877;DHT22;72655;47.596;7.658;2023-11-19T11:21:07;12.40;99.90
82877;DHT22;72655;47.596;7.658;2023-11-19T11:23:50;12.40;99.90
82877;DHT22;72655;47.596;7.658;2023-11-19T11:26:53;12.40;99.90
82877;DHT22;72655;47.596;7.658;2023-11-19T11:29:29;12.40;99.90
82877;DHT22;72655;47.596;7.658;2023-11-19T11:32:07;12.40;99.90
82877;DHT22;72655;47.596;7.658;2023-11-19T11:34:53;12.40;99.90
82877;DHT22;72655;47.596;7.658;2023-11-19T11:37:29;12.40;99.90
82877;DHT22;72655;47.596;7.658;2023-11-19T11:40:01;12.40;99.90
82877;DHT22;72655;47.596;7.658;2023-11-19T11:42:32;12.50;99.90
82877;DHT22;72655;47.596;7.658;2023-11-19T11:44:59;12.50;99.90
82877;DHT22;72655;47.596;7.658;2023-11-19T11:48:05;12.60;99.90
82877;DHT22;72655;47.596;7.658;2023-11-19T11:50:35;12.60;99.90
82877;DHT22;72655;47.596;7.658;2023-11-19T11:53:19;12.70;99.90
82877;DHT22;72655;47.596;7.658;2023-11-19T11:55:59;12.70;99.90
82877;DHT22;72655;47.596;7.658;2023-11-19T11:58:36;12.70;99.90
82877;DHT22;72655;47.596;7.658;2023-11-19T12:01:05;12.80;99.90
82877;DHT22;72655;47.596;7.658;2023-11-19T12:03:36;12.80;99.90
82877;DHT22;72655;47.596;7.658;2023-11-19T12:06:04;12.80;99.90
82877;DHT22;72655;47.596;7.658;2023-11-19T12:08:34;12.80;99.90
82877;DHT22;72655;47.596;7.658;2023-11-19T12:11:04;12.90;99.90
82877;DHT22;72655;47.596;7.658;2023-11-19T12:13:47;12.90;99.90
82877;DHT22;72655;47.596;7.658;2023-11-19T12:16:19;12.90;99.90
82877;DHT22;72655;47.596;7.658;2023-11-19T12:18:47;12.90;99.90
82877;DHT22;72655;47.596;7.658;2023-11-19T12:21:28;12.90;99.90
82877;DHT22;72655;47.596;7.658;2023-11-19T12:23:57;12.90;99.90
82877;DHT22;72655;47.596;7.658;2023-11-19T12:26:37;13.00;99.90
82877;DHT22;72655;47.596;7.658;2023-11-19T12:29:05;13.00;99.90
82877;DHT22;72655;47.596;7.658;2023-11-19T12:31:33;13.00;99.90
82877;DHT22;72655;47.596;7.658;2023-11-19T12:34:08;13.00;99.90
82877;DHT22;72655;47.596;7.658;2023-11-19T12:36:38;13.00;99.90
82877;DHT22;72655;47.596;7.658;2023-11-19T12:39:07;13.00;99.90
82877;DHT22;72655;47.596;7.658;2023-11-19T12:41:50;13.00;99.90
82877;DHT22;72655;47.596;7.658;2023-11-19T12:44:18;13.00;99.90
82877;DHT22;72655;47.596;7.658;2023-11-19T12:46:45;13.10;99.90
82877;DHT22;72655;47.596;7.658;2023-11-19T12:49:12;13.10;99.90
82877;DHT22;72655;47.596;7.658;2023-11-19T12:51:39;13.20;99.90
82877;DHT22;72655;47.596;7.658;2023-11-19T12:54:06;13.20;99.90
82877;DHT22;72655;47.596;7.658;2023-11-19T12:56:33;13.30;99.90
82877;DHT22;72655;47.596;7.658;2023-11-19T12:59:11;13.30;99.90
82877;DHT22;72655;47.596;7.658;2023-11-19T13:01:39;13.30;99.90
82877;DHT22;72655;47.596;7.658;2023-11-19T13:04:17;13.30;99.90
82877;DHT22;72655;47.596;7.658;2023-11-19T13:06:45;13.40;99.90
82877;DHT22;72655;47.596;7.658;2023-11-19T13:09:21;13.40;99.90
82877;DHT22;72655;47.596;7.658;2023-11-19T13:11:49;13.30;99.90
82877;DHT22;72655;47.596;7.658;2023-11-19T13:14:19;13.30;99.90
82877;DHT22;72655;47.596;7.658;2023-11-19T13:16:46;13.30;99.90
82877;DHT22;72655;47.596;7.658;2023-11-19T13:19:13;13.30;99.90
82877;DHT22;72655;47.596;7.658;2023-11-19T13:21:41;13.30;99.90
82877;DHT22;72655;47.596;7.658;2023-11-19T13:24:09;13.30;99.90
82877;DHT22;72655;47.596;7.658;2023-11-19T13:26:36;13.30;99.90
82877;DHT22;72655;47.596;7.658;2023-11-19T13:29:04;13.40;99.90
82877;DHT22;72655;47.596;7.658;2023-11-19T13:31:32;13.40;99.90
82877;DHT22;72655;47.596;7.658;2023-11-19T13:33:59;13.40;99.90
82877;DHT22;72655;47.596;7.658;2023-11-19T13:36:26;13.50;99.90
82877;DHT22;72655;47.596;7.658;2023-11-19T13:38:53;13.60;99.90
82877;DHT22;72655;47.596;7.658;2023-11-19T13:41:24;13.70;99.90
82877;DHT22;72655;47.596;7.658;2023-11-19T13:43:51;13.70;99.90
82877;DHT22;72655;47.596;7.658;2023-11-19T13:46:18;13.70;99.90
82877;DHT22;72655;47.596;7.658;2023-11-19T13:48:47;13.70;99.90
82877;DHT22;72655;47.596;7.658;2023-11-19T13:51:15;13.70;99.90
82877;DHT22;72655;47.596;7.658;2023-11-19T13:53:42;13.70;99.90
82877;DHT22;72655;47.596;7.658;2023-11-19T13:56:11;13.70;99.90
82877;DHT22;72655;47.596;7.658;2023-11-19T13:58:40;13.80;99.90
82877;DHT22;72655;47.596;7.658;2023-11-19T14:01:06;13.80;99.90
82877;DHT22;72655;47.596;7.658;2023-11-19T14:03:34;13.80;99.90
82877;DHT22;72655;47.596;7.658;2023-11-19T14:06:02;13.80;99.90
82877;DHT22;72655;47.596;7.658;2023-11-19T14:08:29;13.90;99.90
82877;DHT22;72655;47.596;7.658;2023-11-19T14:10:56;13.90;99.90
82877;DHT22;72655;47.596;7.658;2023-11-19T14:13:24;13.90;99.90
82877;DHT22;72655;47.596;7.658;2023-11-19T14:15:51;13.90;99.90
82877;DHT22;72655;47.596;7.658;2023-11-19T14:18:18;13.90;99.90
82877;DHT22;72655;47.596;7.658;2023-11-19T14:20:45;13.90;99.90
82877;DHT22;72655;47.596;7.658;2023-11-19T14:23:13;13.90;99.90
82877;DHT22;72655;47.596;7.658;2023-11-19T14:25:40;13.80;99.90
82877;DHT22;72655;47.596;7.658;2023-11-19T14:28:07;13.80;99.90
82877;DHT22;72655;47.596;7.658;2023-11-19T14:30:34;13.80;99.90
82877;DHT22;72655;47.596;7.658;2023-11-19T14:33:01;13.80;99.90
82877;DHT22;72655;47.596;7.658;2023-11-19T14:35:28;13.70;99.90
82877;DHT22;72655;47.596;7.658;2023-11-19T14:37:58;13.70;99.90
82877;DHT22;72655;47.596;7.658;2023-11-19T14:40:26;13.60;99.90
82877;DHT22;72655;47.596;7.658;2023-11-19T14:42:53;13.50;99.90
82877;DHT22;72655;47.596;7.658;2023-11-19T14:45:20;13.50;99.90
82877;DHT22;72655;47.596;7.658;2023-11-19T14:47:48;13.30;99.90
82877;DHT22;72655;47.596;7.658;2023-11-19T14:50:15;13.30;99.90
82877;DHT22;72655;47.596;7.658;2023-11-19T14:52:42;13.10;99.90
82877;DHT22;72655;47.596;7.658;2023-11-19T14:55:09;13.10;99.90
82877;DHT22;72655;47.596;7.658;2023-11-19T14:57:38;13.00;99.90
82877;DHT22;72655;47.596;7.658;2023-11-19T15:00:06;12.90;99.90
82877;DHT22;72655;47.596;7.658;2023-11-19T15:02:39;12.90;99.90
82877;DHT22;72655;47.596;7.658;2023-11-19T15:05:07;12.80;99.90
82877;DHT22;72655;47.596;7.658;2023-11-19T15:07:35;12.80;99.90
82877;DHT22;72655;47.596;7.658;2023-11-19T15:10:02;12.80;99.90
82877;DHT22;72655;47.596;7.658;2023-11-19T15:12:35;12.80;99.90
82877;DHT22;72655;47.596;7.658;2023-11-19T15:15:07;12.70;99.90
82877;DHT22;72655;47.596;7.658;2023-11-19T15:17:38;12.70;99.90
82877;DHT22;72655;47.596;7.658;2023-11-19T15:20:06;12.70;99.90
82877;DHT22;72655;47.596;7.658;2023-11-19T15:22:33;12.70;99.90
82877;DHT22;72655;47.596;7.658;2023-11-19T15:25:00;12.70;99.90
82877;DHT22;72655;47.596;7.658;2023-11-19T15:27:28;12.70;99.90
82877;DHT22;72655;47.596;7.658;2023-11-19T15:29:55;12.70;99.90
82877;DHT22;72655;47.596;7.658;2023-11-19T15:32:24;12.70;99.90
82877;DHT22;72655;47.596;7.658;2023-11-19T15:34:50;12.70;99.90
82877;DHT22;72655;47.596;7.658;2023-11-19T15:37:18;12.80;99.90
82877;DHT22;72655;47.596;7.658;2023-11-19T15:39:45;12.80;99.90
82877;DHT22;72655;47.596;7.658;2023-11-19T15:42:13;12.80;99.90
82877;DHT22;72655;47.596;7.658;2023-11-19T15:44:40;12.80;99.90
82877;DHT22;72655;47.596;7.658;2023-11-19T15:47:07;12.80;99.90
82877;DHT22;72655;47.596;7.658;2023-11-19T15:49:35;12.90;99.90
82877;DHT22;72655;47.596;7.658;2023-11-19T15:52:02;12.90;99.90
82877;DHT22;72655;47.596;7.658;2023-11-19T15:54:30;12.90;99.90
82877;DHT22;72655;47.596;7.658;2023-11-19T15:56:57;12.90;99.90
82877;DHT22;72655;47.596;7.658;2023-11-19T15:59:24;12.90;99.90
82877;DHT22;72655;47.596;7.658;2023-11-19T16:01:51;13.00;99.90
82877;DHT22;72655;47.596;7.658;2023-11-19T16:04:18;13.00;99.90
82877;DHT22;72655;47.596;7.658;2023-11-19T16:06:47;12.90;99.90
82877;DHT22;72655;47.596;7.658;2023-11-19T16:09:14;12.90;99.90
82877;DHT22;72655;47.596;7.658;2023-11-19T16:11:44;12.90;99.90
82877;DHT22;72655;47.596;7.658;2023-11-19T16:14:11;12.90;99.90
82877;DHT22;72655;47.596;7.658;2023-11-19T16:16:40;12.90;99.90
82877;DHT22;72655;47.596;7.658;2023-11-19T16:19:07;12.90;99.90
82877;DHT22;72655;47.596;7.658;2023-11-19T16:21:34;12.90;99.90
82877;DHT22;72655;47.596;7.658;2023-11-19T16:24:04;12.90;99.90
82877;DHT22;72655;47.596;7.658;2023-11-19T16:26:31;12.90;99.90
82877;DHT22;72655;47.596;7.658;2023-11-19T16:28:58;12.90;99.90
82877;DHT22;72655;47.596;7.658;2023-11-19T16:31:25;12.90;99.90
82877;DHT22;72655;47.596;7.658;2023-11-19T16:33:52;12.90;99.90
82877;DHT22;72655;47.596;7.658;2023-11-19T16:36:19;12.90;99.90
82877;DHT22;72655;47.596;7.658;2023-11-19T16:38:46;12.90;99.90
82877;DHT22;72655;47.596;7.658;2023-11-19T16:41:18;12.90;99.90
82877;DHT22;72655;47.596;7.658;2023-11-19T16:43:46;12.90;99.90
82877;DHT22;72655;47.596;7.658;2023-11-19T16:46:14;12.90;99.90
82877;DHT22;72655;47.596;7.658;2023-11-19T16:48:41;12.80;99.90
82877;DHT22;72655;47.596;7.658;2023-11-19T16:51:10;12.80;99.90
82877;DHT22;72655;47.596;7.658;2023-11-19T16:53:43;12.80;99.90
82877;DHT22;72655;47.596;7.658;2023-11-19T16:56:10;12.70;99.90
82877;DHT22;72655;47.596;7.658;2023-11-19T16:58:39;12.70;99.90
82877;DHT22;72655;47.596;7.658;2023-11-19T17:01:08;12.60;99.90
82877;DHT22;72655;47.596;7.658;2023-11-19T17:03:35;12.70;99.90
82877;DHT22;72655;47.596;7.658;2023-11-19T17:06:03;12.70;99.90
82877;DHT22;72655;47.596;7.658;2023-11-19T17:08:30;12.70;99.90
82877;DHT22;72655;47.596;7.658;2023-11-19T17:10:59;12.70;99.90
82877;DHT22;72655;47.596;7.658;2023-11-19T17:13:26;12.70;99.90
82877;DHT22;72655;47.596;7.658;2023-11-19T17:15:54;12.70;99.90
82877;DHT22;72655;47.596;7.658;2023-11-19T17:18:22;12.70;99.90
82877;DHT22;72655;47.596;7.658;2023-11-19T17:20:49;12.70;99.90
82877;DHT22;72655;47.596;7.658;2023-11-19T17:23:16;12.60;99.90
82877;DHT22;72655;47.596;7.658;2023-11-19T17:25:43;12.70;99.90
82877;DHT22;72655;47.596;7.658;2023-11-19T17:28:10;12.70;99.90
82877;DHT22;72655;47.596;7.658;2023-11-19T17:30:38;12.80;99.90
82877;DHT22;72655;47.596;7.658;2023-11-19T17:33:07;13.00;99.90
82877;DHT22;72655;47.596;7.658;2023-11-19T17:35:35;13.00;99.90
82877;DHT22;72655;47.596;7.658;2023-11-19T17:38:02;13.00;99.90
82877;DHT22;72655;47.596;7.658;2023-11-19T17:40:30;13.00;99.90
82877;DHT22;72655;47.596;7.658;2023-11-19T17:42:57;13.00;99.90
82877;DHT22;72655;47.596;7.658;2023-11-19T17:45:24;13.00;99.90
82877;DHT22;72655;47.596;7.658;2023-11-19T17:47:52;13.00;99.90
82877;DHT22;72655;47.596;7.658;2023-11-19T17:50:20;12.90;99.90
82877;DHT22;72655;47.596;7.658;2023-11-19T17:52:47;12.90;99.90
82877;DHT22;72655;47.596;7.658;2023-11-19T17:55:15;12.80;99.90
82877;DHT22;72655;47.596;7.658;2023-11-19T17:57:42;12.70;99.90
82877;DHT22;72655;47.596;7.658;2023-11-19T18:00:10;12.50;99.90
82877;DHT22;72655;47.596;7.658;2023-11-19T18:02:39;12.50;99.90
82877;DHT22;72655;47.596;7.658;2023-11-19T18:05:10;12.50;99.90
82877;DHT22;72655;47.596;7.658;2023-11-19T18:07:39;12.40;99.90
82877;DHT22;72655;47.596;7.658;2023-11-19T18:10:07;12.30;99.90
82877;DHT22;72655;47.596;7.658;2023-11-19T18:12:34;12.20;99.90
82877;DHT22;72655;47.596;7.658;2023-11-19T18:15:02;12.20;99.90
82877;DHT22;72655;47.596;7.658;2023-11-19T18:17:29;12.20;99.90
82877;DHT22;72655;47.596;7.658;2023-11-19T18:19:56;12.10;99.90
82877;DHT22;72655;47.596;7.658;2023-11-19T18:22:24;12.20;99.90
82877;DHT22;72655;47.596;7.658;2023-11-19T18:24:53;12.30;99.90
82877;DHT22;72655;47.596;7.658;2023-11-19T18:27:20;12.30;99.90
82877;DHT22;72655;47.596;7.658;2023-11-19T18:29:47;12.30;99.90
82877;DHT22;72655;47.596;7.658;2023-11-19T18:32:14;12.30;99.90
82877;DHT22;72655;47.596;7.658;2023-11-19T18:34:41;12.40;99.90
82877;DHT22;72655;47.596;7.658;2023-11-19T18:37:08;12.40;99.90
82877;DHT22;72655;47.596;7.658;2023-11-19T18:39:42;12.50;99.90
82877;DHT22;72655;47.596;7.658;2023-11-19T18:42:15;12.50;99.90
